Time;durP1;ratioP1;P1;durP2;ratioP2;P2;SDS_P1;SDS_P2;PMS_P1;PMS_P2;Temp;Humidity;BMP_temperature;BMP_pressure;BME280_temperature;BME280_humidity;BME280_pressure;Samples;Min_cycle;Max_cycle;Signal;HPM_P1;HPM_P2
2022/09/18 03:02:50;;;;;;;19.95;3.13;;;;;;;9.42;72.95;99949.69;5215086;23;20035;-65
2022/09/18 03:05:17;;;;;;;25.77;2.88;;;;;;;9.44;72.31;99958.41;4950261;29;20490;-63
2022/09/18 03:07:43;;;;;;;14.15;2.65;;;;;;;9.25;72.87;99956.94;4956487;29;20050;-64
2022/09/18 03:10:10;;;;;;;13.95;2.67;;;;;;;9.28;73.20;99961.13;4955210;29;20403;-64
2022/09/18 03:12:37;;;;;;;12.88;2.25;;;;;;;9.29;72.92;99952.91;4937256;29;20052;-73
2022/09/18 03:15:04;;;;;;;22.13;2.72;;;;;;;9.29;73.23;99958.25;4936590;29;20044;-74
2022/09/18 03:17:31;;;;;;;23.45;2.63;;;;;;;9.39;72.65;99963.44;4930329;29;20506;-73
2022/09/18 03:19:57;;;;;;;20.23;3.67;;;;;;;9.40;72.67;99970.44;4945421;29;20069;-74
2022/09/18 03:22:24;;;;;;;21.98;3.45;;;;;;;9.51;72.14;99970.09;4955473;29;20131;-72
2022/09/18 03:24:50;;;;;;;19.27;3.38;;;;;;;9.48;72.28;99977.66;4938515;29;20073;-74
2022/09/18 03:27:17;;;;;;;19.75;2.63;;;;;;;9.21;72.49;99971.63;4957661;29;20521;-71
2022/09/18 03:29:44;;;;;;;27.77;3.83;;;;;;;9.44;71.73;99982.50;4965560;29;20054;-71
2022/09/18 03:32:10;;;;;;;23.35;3.65;;;;;;;9.32;72.05;99978.50;4963409;29;20133;-71
2022/09/18 03:34:38;;;;;;;22.60;3.67;;;;;;;9.46;71.65;99980.47;4945966;29;20051;-69
2022/09/18 03:37:04;;;;;;;22.95;3.67;;;;;;;9.61;71.26;99985.13;4954429;29;20051;-70
2022/09/18 03:39:30;;;;;;;26.70;3.53;;;;;;;9.42;71.35;99981.81;4943474;29;20051;-69
2022/09/18 03:41:57;;;;;;;23.55;3.42;;;;;;;9.31;71.68;99992.91;4943006;29;20487;-70
2022/09/18 03:44:23;;;;;;;21.15;3.28;;;;;;;9.40;70.88;99986.50;4942499;29;20067;-70
2022/09/18 03:46:50;;;;;;;32.60;3.78;;;;;;;9.30;70.79;99981.38;4940777;29;20048;-71
2022/09/18 03:49:16;;;;;;;19.67;4.22;;;;;;;9.22;70.90;99992.03;4942279;29;20111;-70
2022/09/18 03:51:43;;;;;;;26.85;3.88;;;;;;;9.30;71.04;99984.03;4933654;29;20047;-71
2022/09/18 03:54:09;;;;;;;20.75;3.90;;;;;;;9.45;70.62;99997.56;4942453;29;20055;-71
2022/09/18 03:56:37;;;;;;;23.23;4.25;;;;;;;9.45;70.64;99994.03;4941850;29;20051;-70
2022/09/18 03:59:04;;;;;;;28.95;3.58;;;;;;;9.12;71.54;99995.88;4941853;29;20058;-73
2022/09/18 04:01:30;;;;;;;26.45;3.85;;;;;;;9.07;71.51;99997.22;4941077;29;20048;-71
2022/09/18 04:03:57;;;;;;;23.10;3.70;;;;;;;9.18;71.18;100003.25;4941947;29;20094;-70
2022/09/18 04:06:24;;;;;;;24.77;4.32;;;;;;;9.18;71.32;100014.78;4942972;29;20062;-71
2022/09/18 04:08:52;;;;;;;25.25;3.88;;;;;;;9.05;71.74;100006.44;4942108;29;20419;-71
2022/09/18 04:11:18;;;;;;;22.38;3.72;;;;;;;9.11;71.56;100008.44;4949404;29;20047;-70
2022/09/18 04:13:44;;;;;;;25.40;4.88;;;;;;;9.20;71.37;100001.25;4957689;28;20043;-71
2022/09/18 04:16:11;;;;;;;18.42;4.18;;;;;;;9.12;71.64;100003.91;4947138;28;20062;-71
2022/09/18 04:18:38;;;;;;;27.48;4.28;;;;;;;8.96;71.70;100004.78;4956352;29;20087;-71
2022/09/18 04:21:05;;;;;;;25.25;4.57;;;;;;;9.00;71.44;100008.78;4956514;29;20054;-71
2022/09/18 04:23:31;;;;;;;25.90;4.72;;;;;;;8.95;71.58;100016.47;4949136;29;20043;-73
2022/09/18 04:25:58;;;;;;;19.17;4.78;;;;;;;8.81;71.70;100023.31;4956404;28;20039;-70
2022/09/18 04:28:24;;;;;;;26.08;4.07;;;;;;;8.90;72.03;100025.00;4952520;28;20518;-71
2022/09/18 04:30:51;;;;;;;33.63;5.38;;;;;;;8.97;71.12;100017.13;4956769;28;20051;-71
2022/09/18 04:33:17;;;;;;;18.00;4.32;;;;;;;9.02;71.13;100026.34;4956971;29;20063;-73
2022/09/18 04:35:43;;;;;;;24.90;3.63;;;;;;;8.76;71.37;100031.00;4956568;29;20116;-71
2022/09/18 04:38:11;;;;;;;21.25;4.13;;;;;;;8.97;71.23;100031.34;4958277;29;20051;-71
2022/09/18 04:40:37;;;;;;;18.67;4.03;;;;;;;9.04;70.78;100043.06;4960149;29;20130;-69
2022/09/18 04:43:04;;;;;;;14.70;3.40;;;;;;;9.04;70.79;100037.69;4945317;28;20051;-72
2022/09/18 04:45:31;;;;;;;17.65;3.35;;;;;;;8.88;71.28;100042.19;4961436;29;20043;-70
2022/09/18 04:47:57;;;;;;;27.25;4.22;;;;;;;8.89;71.03;100042.06;4962702;29;20047;-71
2022/09/18 04:50:23;;;;;;;23.13;3.72;;;;;;;8.97;70.66;100044.72;4955608;29;20059;-70
2022/09/18 04:52:50;;;;;;;20.08;3.03;;;;;;;8.93;70.80;100048.75;4963367;29;20053;-71
2022/09/18 04:55:16;;;;;;;23.95;3.35;;;;;;;8.94;70.90;100045.06;4962403;29;20046;-72
2022/09/18 04:57:43;;;;;;;18.88;3.38;;;;;;;8.90;70.66;100037.53;4963101;28;20130;-72
2022/09/18 05:00:10;;;;;;;21.10;2.95;;;;;;;8.72;70.95;100046.53;4963278;29;20055;-72
2022/09/18 05:02:37;;;;;;;18.00;2.53;;;;;;;8.61;71.03;100044.19;4960737;28;20047;-70
2022/09/18 05:05:04;;;;;;;21.35;3.35;;;;;;;8.89;70.21;100052.75;4953021;28;20067;-71
2022/09/18 05:07:31;;;;;;;18.50;3.22;;;;;;;8.91;70.36;100057.94;4946330;28;20395;-70
2022/09/18 05:09:58;;;;;;;19.10;3.05;;;;;;;8.78;70.53;100053.91;4954082;28;20047;-70
2022/09/18 05:12:24;;;;;;;15.25;2.65;;;;;;;8.91;70.13;100058.75;4948056;29;20051;-71
2022/09/18 05:14:51;;;;;;;17.00;2.97;;;;;;;8.94;70.21;100052.25;4944107;29;20063;-72
2022/09/18 05:17:17;;;;;;;25.52;3.53;;;;;;;8.95;69.96;100057.41;4944348;29;20048;-70
2022/09/18 05:19:44;;;;;;;23.17;4.60;;;;;;;8.81;70.08;100058.06;4945955;29;20055;-71
2022/09/18 05:22:10;;;;;;;20.40;3.83;;;;;;;8.90;69.79;100064.28;4927600;29;20118;-71
2022/09/18 05:24:37;;;;;;;16.15;3.55;;;;;;;8.81;69.99;100055.41;4945580;29;20130;-70
2022/09/18 05:27:03;;;;;;;22.15;3.25;;;;;;;8.69;70.07;100057.56;4945233;29;20051;-71
2022/09/18 05:29:30;;;;;;;20.52;2.95;;;;;;;8.84;69.31;100058.56;4944192;29;20051;-71
2022/09/18 05:31:56;;;;;;;15.20;2.75;;;;;;;8.65;70.17;100060.75;4945071;29;20061;-70
2022/09/18 05:34:23;;;;;;;20.45;2.83;;;;;;;8.80;69.11;100059.91;4945064;29;20063;-70
2022/09/18 05:36:49;;;;;;;23.33;2.45;;;;;;;8.90;68.89;100064.28;4945581;29;20052;-70
2022/09/18 05:39:16;;;;;;;18.90;2.75;;;;;;;8.35;69.78;100071.00;4945387;29;20048;-72
2022/09/18 05:41:43;;;;;;;18.08;2.50;;;;;;;8.49;69.84;100073.03;4944102;29;20052;-70
2022/09/18 05:44:10;;;;;;;9.90;2.20;;;;;;;8.28;70.35;100076.16;4944096;29;20067;-70
2022/09/18 05:46:36;;;;;;;26.63;4.10;;;;;;;8.61;69.09;100078.94;4944820;29;20074;-71
2022/09/18 05:49:05;;;;;;;12.27;2.50;;;;;;;8.44;69.39;100082.56;4926470;29;20114;-71
2022/09/18 05:51:31;;;;;;;12.27;2.40;;;;;;;8.64;68.70;100091.13;4944877;29;20047;-70
2022/09/18 05:53:58;;;;;;;22.13;2.35;;;;;;;8.56;69.18;100087.44;4944086;29;20043;-71
2022/09/18 05:56:26;;;;;;;20.90;2.90;;;;;;;8.51;69.25;100088.94;4938357;29;20052;-64
2022/09/18 05:58:53;;;;;;;21.25;3.30;;;;;;;8.57;69.01;100091.81;4933933;29;20066;-62
2022/09/18 06:01:19;;;;;;;15.98;2.70;;;;;;;8.60;68.56;100088.78;4934278;29;20051;-63
2022/09/18 06:03:50;;;;;;;18.95;2.38;;;;;;;8.67;68.04;100080.94;4933340;29;20051;-67
2022/09/18 06:06:17;;;;;;;16.85;2.58;;;;;;;8.68;68.66;100092.47;4933935;29;20162;-63
2022/09/18 06:08:43;;;;;;;20.77;3.05;;;;;;;8.60;68.72;100096.81;4934421;29;20134;-63
2022/09/18 06:11:10;;;;;;;22.48;2.83;;;;;;;8.76;68.00;100101.38;4942966;29;20459;-63
2022/09/18 06:13:36;;;;;;;18.77;2.83;;;;;;;8.96;66.94;100096.56;4953395;29;20403;-63
2022/09/18 06:16:03;;;;;;;15.13;2.67;;;;;;;8.89;67.43;100090.19;4952865;29;20047;-62
2022/09/18 06:18:30;;;;;;;21.25;2.58;;;;;;;8.92;67.20;100100.56;4952782;29;20044;-63
2022/09/18 06:20:58;;;;;;;27.95;2.83;;;;;;;9.24;65.87;100099.78;4952471;28;20051;-63
2022/09/18 06:23:28;;;;;;;22.52;3.30;;;;;;;9.08;66.32;100095.22;4952225;28;20051;-65
2022/09/18 06:25:59;;;;;;;15.07;2.53;;;;;;;9.32;65.63;100096.28;4953232;29;20078;-63
2022/09/18 06:28:27;;;;;;;18.80;3.15;;;;;;;9.38;65.29;100095.63;4955155;28;20047;-62
2022/09/18 06:30:53;;;;;;;20.50;3.53;;;;;;;9.63;65.04;100095.59;4955952;29;20499;-66
2022/09/18 06:33:19;;;;;;;21.70;3.13;;;;;;;9.73;64.35;100102.44;4955912;29;20054;-66
2022/09/18 06:35:47;;;;;;;23.55;3.55;;;;;;;9.57;64.57;100100.59;4944539;29;20048;-73
2022/09/18 06:38:15;;;;;;;18.38;2.63;;;;;;;9.80;63.86;100102.59;4937637;29;20130;-74
2022/09/18 06:40:49;;;;;;;18.83;2.78;;;;;;;10.02;63.54;100114.44;4938409;29;20044;-74
2022/09/18 06:43:16;;;;;;;23.15;2.85;;;;;;;9.97;62.68;100093.53;4937927;29;20428;-74
2022/09/18 06:45:43;;;;;;;16.25;2.85;;;;;;;10.47;61.22;100105.72;4934163;29;20414;-74
2022/09/18 06:48:09;;;;;;;20.17;2.80;;;;;;;10.59;60.48;100095.50;4937903;29;20062;-74
2022/09/18 06:50:36;;;;;;;26.38;2.88;;;;;;;10.82;60.06;100108.09;4938121;29;20047;-74
2022/09/18 06:53:05;;;;;;;12.15;2.17;;;;;;;10.81;59.75;100109.13;4936638;29;20051;-74
2022/09/18 06:55:37;;;;;;;25.05;3.42;;;;;;;10.79;59.62;100106.63;4936826;29;20126;-71
2022/09/18 06:58:04;;;;;;;16.25;2.50;;;;;;;11.44;58.03;100105.28;4938275;29;20514;-74
2022/09/18 07:00:31;;;;;;;14.32;2.25;;;;;;;12.00;56.60;100107.66;4936420;29;20051;-73
2022/09/18 07:03:00;;;;;;;18.50;2.90;;;;;;;12.28;56.00;100115.91;4936077;29;22261;-65
2022/09/18 07:05:29;;;;;;;10.93;2.40;;;;;;;11.95;56.42;100116.28;4935707;29;20491;-66
2022/09/18 07:07:56;;;;;;;20.60;3.20;;;;;;;12.39;55.43;100126.22;4935582;29;20050;-66
2022/09/18 07:10:23;;;;;;;15.20;2.50;;;;;;;13.11;53.34;100114.63;4938761;29;20054;-66
2022/09/18 07:13:01;;;;;;;17.60;2.55;;;;;;;13.37;52.50;100118.63;4954800;28;20051;-66
2022/09/18 07:15:28;;;;;;;11.40;2.50;;;;;;;13.52;51.39;100122.06;4954548;28;20051;-66
2022/09/18 07:17:58;;;;;;;14.13;3.13;;;;;;;14.03;50.52;100119.19;4954588;29;20428;-69
2022/09/18 07:20:25;;;;;;;12.50;2.10;;;;;;;14.02;49.71;100122.91;4955138;29;20047;-67
2022/09/18 07:22:57;;;;;;;11.48;2.30;;;;;;;14.56;48.43;100130.25;4954464;29;20055;-67
2022/09/18 07:25:28;;;;;;;26.90;2.92;;;;;;;13.80;49.10;100125.69;4937519;29;20070;-67
2022/09/18 07:27:55;;;;;;;13.50;2.95;;;;;;;13.93;48.83;100124.09;4954466;29;20066;-65
2022/09/18 07:30:21;;;;;;;14.32;2.10;;;;;;;14.04;48.08;100132.47;4954072;29;20423;-66
2022/09/18 07:32:48;;;;;;;13.18;2.53;;;;;;;14.65;47.35;100118.25;4954498;29;20054;-65
2022/09/18 07:35:14;;;;;;;13.63;2.60;;;;;;;14.68;47.03;100131.34;4954886;29;20051;-67
2022/09/18 07:37:41;;;;;;;17.33;3.25;;;;;;;14.71;46.63;100131.00;4954912;29;20423;-68
2022/09/18 07:40:09;;;;;;;12.65;2.50;;;;;;;15.29;44.92;100132.38;4952351;28;20133;-66
2022/09/18 07:42:35;;;;;;;15.38;3.20;;;;;;;15.25;44.37;100137.38;4954540;29;20036;-66
2022/09/18 07:45:02;;;;;;;10.85;1.98;;;;;;;14.46;45.38;100133.34;4933800;29;20048;-67
2022/09/18 07:47:29;;;;;;;16.40;2.53;;;;;;;14.52;46.21;100135.22;4916010;29;20063;-68
2022/09/18 07:49:55;;;;;;;13.23;2.65;;;;;;;14.98;44.81;100134.63;4916727;29;20424;-66
2022/09/18 07:52:22;;;;;;;10.25;2.10;;;;;;;14.77;45.02;100132.88;4932444;29;20052;-65
2022/09/18 07:54:48;;;;;;;10.65;2.42;;;;;;;14.67;45.23;100131.53;4934629;29;20048;-64
2022/09/18 07:57:15;;;;;;;18.02;3.63;;;;;;;14.12;46.81;100138.75;4934161;29;20052;-69
2022/09/18 07:59:41;;;;;;;21.55;5.25;;;;;;;13.43;48.06;100136.72;4937371;29;20515;-70
2022/09/18 08:02:09;;;;;;;13.70;2.95;;;;;;;13.04;48.64;100129.91;4935539;29;20126;-72
2022/09/18 08:04:36;;;;;;;17.02;2.67;;;;;;;13.13;49.12;100136.84;4934868;29;20040;-71
2022/09/18 08:07:03;;;;;;;15.15;2.53;;;;;;;13.52;48.78;100124.78;4937027;29;20055;-70
2022/09/18 08:09:29;;;;;;;18.55;2.60;;;;;;;14.49;46.36;100132.09;4939918;29;20044;-68
2022/09/18 08:11:56;;;;;;;20.27;3.10;;;;;;;13.68;48.07;100132.59;4953615;29;20410;-70
2022/09/18 08:14:22;;;;;;;17.23;3.55;;;;;;;14.34;45.97;100131.41;4960275;29;20138;-71
2022/09/18 08:16:54;;;;;;;17.42;2.72;;;;;;;14.20;46.64;100135.88;4951825;29;20043;-72
2022/09/18 08:19:21;;;;;;;17.55;2.60;;;;;;;13.57;47.69;100142.03;4959788;29;20155;-71
2022/09/18 08:21:47;;;;;;;17.10;2.35;;;;;;;12.67;49.22;100131.75;4956983;29;20054;-63
2022/09/18 08:24:16;;;;;;;20.33;2.60;;;;;;;12.52;50.01;100128.22;4954491;28;20427;-63
2022/09/18 08:26:42;;;;;;;12.15;2.60;;;;;;;13.73;47.40;100130.13;4954268;29;20066;-63
2022/09/18 08:29:09;;;;;;;13.23;2.60;;;;;;;14.82;44.45;100131.44;4942532;28;20047;-66
2022/09/18 08:31:35;;;;;;;12.57;2.58;;;;;;;14.33;45.63;100127.88;4954428;29;20047;-63
2022/09/18 08:34:02;;;;;;;17.52;3.08;;;;;;;14.34;45.92;100124.13;4953641;29;20111;-63
2022/09/18 08:36:28;;;;;;;12.13;2.53;;;;;;;15.48;43.47;100126.19;4954400;29;20078;-63
2022/09/18 08:38:55;;;;;;;9.90;2.30;;;;;;;15.09;44.13;100126.97;4935820;29;20415;-63
2022/09/18 08:41:43;;;;;;;18.52;2.80;;;;;;;15.07;44.19;100126.31;4954149;29;20059;-62
2022/09/18 08:44:23;;;;;;;15.85;2.53;;;;;;;15.56;42.30;100136.78;4953234;29;20426;-62
2022/09/18 08:47:06;;;;;;;17.00;2.55;;;;;;;15.70;41.76;100126.81;4954048;29;20051;-63
2022/09/18 08:49:36;;;;;;;14.18;2.80;;;;;;;15.01;43.26;100126.09;4953698;28;20057;-63
2022/09/18 08:52:37;;;;;;;9.73;2.60;;;;;;;14.37;44.62;100129.13;4953962;29;20058;-62
2022/09/18 08:55:29;;;;;;;9.90;2.65;;;;;;;14.33;45.57;100130.56;4942908;29;20054;-63
2022/09/18 08:58:05;;;;;;;13.20;2.65;;;;;;;14.53;45.36;100134.22;4953935;29;20055;-62
2022/09/18 09:00:51;;;;;;;13.85;2.42;;;;;;;14.20;45.68;100128.63;4954024;29;20051;-64
2022/09/18 09:03:24;;;;;;;17.30;2.53;;;;;;;14.34;45.23;100126.84;4953207;29;20138;-62
2022/09/18 09:05:57;;;;;;;17.52;3.00;;;;;;;14.06;45.68;100126.88;4953291;29;20047;-62
2022/09/18 09:08:48;;;;;;;18.92;2.60;;;;;;;14.06;45.45;100106.13;4936143;29;20396;-62
2022/09/18 09:11:23;;;;;;;7.43;1.43;;;;;;;14.93;43.78;100126.28;4943411;29;20054;-62
2022/09/18 09:14:19;;;;;;;9.63;2.08;;;;;;;15.92;41.23;100119.34;4934642;29;20295;-64
2022/09/18 09:17:23;;;;;;;12.63;2.30;;;;;;;15.92;40.62;100114.75;4920182;29;20079;-64
2022/09/18 09:20:06;;;;;;;8.30;1.75;;;;;;;16.13;40.15;100119.09;4934490;29;20035;-63
2022/09/18 09:22:46;;;;;;;19.27;2.15;;;;;;;16.39;38.96;100111.94;4917599;29;20047;-63
2022/09/18 09:25:12;;;;;;;12.45;2.33;;;;;;;15.77;39.83;100110.59;4934196;29;20052;-63
2022/09/18 09:27:52;;;;;;;8.27;2.05;;;;;;;16.03;39.52;100113.28;4935065;29;20050;-64
2022/09/18 09:30:19;;;;;;;13.50;2.10;;;;;;;15.55;40.70;100108.09;4933697;29;20052;-64
2022/09/18 09:33:00;;;;;;;8.55;1.70;;;;;;;15.25;41.54;100113.88;4933067;29;20055;-62
2022/09/18 09:35:45;;;;;;;6.25;1.67;;;;;;;14.56;43.05;100114.06;4933805;29;20052;-62
2022/09/18 09:38:29;;;;;;;9.80;1.80;;;;;;;14.20;44.10;100120.53;4932883;29;20051;-63
2022/09/18 09:40:59;;;;;;;13.27;1.60;;;;;;;13.92;44.33;100108.94;4934244;29;20491;-62
2022/09/18 09:43:28;;;;;;;7.53;1.95;;;;;;;13.74;44.35;100106.72;4933876;29;20055;-63
2022/09/18 09:46:27;;;;;;;15.25;1.70;;;;;;;14.55;43.61;100112.41;4934258;29;20055;-63
2022/09/18 09:49:13;;;;;;;7.88;1.92;;;;;;;15.49;41.12;100111.59;4916014;29;20498;-63
2022/09/18 09:51:56;;;;;;;10.15;2.03;;;;;;;14.94;42.61;100106.31;4934017;29;20055;-63
2022/09/18 09:54:23;;;;;;;13.48;3.05;;;;;;;14.96;42.96;100114.25;4916719;29;20056;-63
2022/09/18 09:57:22;;;;;;;7.40;1.40;;;;;;;14.55;43.46;100107.00;4933522;29;20052;-63
2022/09/18 09:59:59;;;;;;;8.23;1.63;;;;;;;13.73;44.73;100105.88;4917585;29;20055;-63
2022/09/18 10:02:35;;;;;;;11.57;1.77;;;;;;;13.93;44.55;100102.53;4932854;29;20060;-62
2022/09/18 10:05:15;;;;;;;8.32;1.55;;;;;;;13.87;44.42;100114.91;4933604;29;20047;-62
2022/09/18 10:07:55;;;;;;;14.98;2.90;;;;;;;13.40;46.11;100110.16;4932999;29;20066;-64
2022/09/18 10:10:21;;;;;;;8.88;2.20;;;;;;;13.62;46.26;100117.19;4935168;29;20054;-62
2022/09/18 10:12:53;;;;;;;10.35;1.67;;;;;;;13.86;46.09;100117.81;4953412;29;20054;-62
2022/09/18 10:15:34;;;;;;;15.43;2.03;;;;;;;13.34;47.01;100114.47;4952984;29;20411;-62
2022/09/18 10:18:05;;;;;;;11.00;1.77;;;;;;;14.73;44.67;100115.41;4953000;29;20526;-73
2022/09/18 10:20:32;;;;;;;13.60;2.33;;;;;;;15.48;42.43;100118.06;4952940;29;20403;-73
2022/09/18 10:23:07;;;;;;;11.18;2.38;;;;;;;16.28;41.31;100118.00;4953530;29;20050;-72
2022/09/18 10:25:55;;;;;;;11.98;2.05;;;;;;;16.42;40.78;100103.38;4953895;29;20483;-72
2022/09/18 10:28:24;;;;;;;9.80;2.20;;;;;;;16.81;40.35;100113.22;4953143;29;20055;-72
2022/09/18 10:30:53;;;;;;;12.07;2.75;;;;;;;16.80;39.51;100106.16;4953619;29;20151;-72
2022/09/18 10:33:33;;;;;;;13.52;2.17;;;;;;;15.55;41.11;100110.78;4952225;29;20045;-72
2022/09/18 10:36:09;;;;;;;12.00;2.90;;;;;;;14.54;42.62;100097.25;4952240;29;20043;-71
2022/09/18 10:38:38;;;;;;;8.90;1.58;;;;;;;14.62;40.73;100101.63;4952913;29;20407;-72
2022/09/18 10:41:22;;;;;;;8.05;1.33;;;;;;;14.83;40.48;100103.41;4952388;29;20460;-72
2022/09/18 10:43:56;;;;;;;7.50;1.98;;;;;;;15.37;39.86;100105.19;4952712;29;20054;-72
2022/09/18 10:46:29;;;;;;;7.43;1.52;;;;;;;15.60;39.51;100100.16;4953109;29;20054;-72
2022/09/18 10:49:02;;;;;;;9.68;2.00;;;;;;;14.52;41.28;100091.22;4951965;29;20043;-63
2022/09/18 10:51:29;;;;;;;11.77;2.15;;;;;;;14.29;41.97;100102.34;4940226;28;20058;-63
2022/09/18 10:54:23;;;;;;;9.48;2.00;;;;;;;14.44;42.30;100099.50;4951585;29;20048;-63
2022/09/18 10:56:49;;;;;;;9.80;1.80;;;;;;;14.46;43.94;100092.00;4947848;29;20050;-64
2022/09/18 10:59:28;;;;;;;7.78;1.60;;;;;;;15.49;42.66;100081.88;4952007;29;20062;-65
2022/09/18 11:01:56;;;;;;;7.28;2.03;;;;;;;16.35;40.90;100076.34;4949238;29;20043;-65
2022/09/18 11:04:26;;;;;;;9.18;1.70;;;;;;;16.70;39.99;100072.47;4932904;29;20052;-66
2022/09/18 11:06:53;;;;;;;9.48;2.15;;;;;;;17.32;38.74;100082.47;4933100;29;20555;-63
2022/09/18 11:09:34;;;;;;;8.38;1.70;;;;;;;16.93;37.88;100072.75;4931717;29;20064;-64
2022/09/18 11:12:01;;;;;;;10.70;2.10;;;;;;;17.27;36.94;100073.38;4933438;29;20102;-63
2022/09/18 11:14:37;;;;;;;13.05;1.90;;;;;;;16.53;38.18;100086.50;4935437;29;20056;-63
2022/09/18 11:17:04;;;;;;;10.50;2.22;;;;;;;16.71;37.19;100084.94;4936345;29;20055;-66
2022/09/18 11:19:36;;;;;;;10.45;2.05;;;;;;;15.58;38.98;100096.03;4935719;29;20054;-64
2022/09/18 11:22:05;;;;;;;8.07;1.52;;;;;;;14.78;42.79;100109.41;4936164;29;20051;-65
2022/09/18 11:24:35;;;;;;;10.77;1.80;;;;;;;13.89;45.77;100112.03;4936009;29;20055;-63
2022/09/18 11:27:19;;;;;;;8.13;1.65;;;;;;;13.55;46.90;100098.25;4935471;29;20408;-63
2022/09/18 11:29:45;;;;;;;8.50;1.52;;;;;;;13.25;48.10;100099.44;4935352;29;20048;-65
2022/09/18 11:32:29;;;;;;;10.20;1.90;;;;;;;13.49;48.28;100093.69;4935820;29;20055;-66
2022/09/18 11:35:00;;;;;;;7.72;1.52;;;;;;;13.73;48.86;100097.78;4935474;29;20044;-65
2022/09/18 11:37:33;;;;;;;12.38;1.80;;;;;;;15.03;46.29;100085.38;4935360;29;20070;-63
2022/09/18 11:40:06;;;;;;;11.15;2.05;;;;;;;15.33;44.59;100076.88;4934772;29;20060;-65
2022/09/18 11:42:41;;;;;;;8.88;2.83;;;;;;;14.40;46.15;100077.47;4935560;29;20139;-63
2022/09/18 11:45:39;;;;;;;6.25;1.77;;;;;;;14.76;46.02;100079.91;4935749;29;20058;-63
2022/09/18 11:48:21;;;;;;;11.15;2.05;;;;;;;16.96;41.92;100072.31;4936024;29;20066;-64
2022/09/18 11:50:53;;;;;;;9.05;2.22;;;;;;;19.09;37.36;100060.09;4935720;29;20519;-65
2022/09/18 11:53:24;;;;;;;6.85;1.75;;;;;;;20.77;33.60;100071.25;4935105;29;20052;-65
2022/09/18 11:55:56;;;;;;;4.82;1.38;;;;;;;22.35;30.22;100063.94;4935522;29;20048;-65
2022/09/18 11:58:40;;;;;;;8.52;1.83;;;;;;;22.67;30.06;100058.59;4935423;29;20062;-65
2022/09/18 12:01:30;;;;;;;10.70;2.13;;;;;;;23.07;28.98;100044.53;4935500;29;20055;-65
2022/09/18 12:04:23;;;;;;;8.65;1.75;;;;;;;23.12;28.44;100047.34;4952060;29;20047;-64
2022/09/18 12:06:57;;;;;;;7.10;1.92;;;;;;;23.32;27.87;100054.06;4933518;29;20047;-65
2022/09/18 12:09:47;;;;;;;8.05;2.08;;;;;;;23.66;27.74;100063.63;4935646;29;20054;-70
2022/09/18 12:12:31;;;;;;;8.25;2.00;;;;;;;22.50;28.74;100077.84;4954219;29;20055;-69
2022/09/18 12:15:07;;;;;;;7.93;1.67;;;;;;;20.02;31.69;100076.75;4954949;29;20664;-69
2022/09/18 12:17:43;;;;;;;7.63;1.10;;;;;;;17.65;36.36;100072.44;4955557;29;20459;-68
2022/09/18 12:20:21;;;;;;;2.97;0.90;;;;;;;16.65;37.18;100081.25;4954967;29;20051;-68
2022/09/18 12:22:56;;;;;;;5.35;1.10;;;;;;;15.18;40.32;100066.28;4955016;29;20047;-68
2022/09/18 12:25:43;;;;;;;5.70;1.25;;;;;;;15.20;41.10;100045.28;4954833;28;20055;-69
2022/09/18 12:28:29;;;;;;;4.88;0.90;;;;;;;15.82;41.70;100045.91;4955543;29;20055;-68
2022/09/18 12:31:12;;;;;;;4.13;1.45;;;;;;;17.74;38.01;100042.09;4955339;29;20055;-68
2022/09/18 12:34:01;;;;;;;6.63;1.35;;;;;;;19.54;35.35;100034.25;4955609;29;20039;-68
2022/09/18 12:36:36;;;;;;;2.65;1.00;;;;;;;21.05;32.09;100036.84;4955109;28;20116;-69
2022/09/18 12:39:52;;;;;;;1.55;0.80;;;;;;;22.55;29.80;100029.50;4955843;29;20985;-70
2022/09/18 12:42:40;;;;;;;4.03;0.73;;;;;;;23.66;27.88;100025.28;4953452;28;20063;-67
2022/09/18 12:45:37;;;;;;;2.40;0.90;;;;;;;24.41;27.26;100020.50;4955035;29;20554;-68
2022/09/18 12:48:39;;;;;;;5.57;2.78;;;;;;;24.14;26.44;100026.13;4954488;29;20134;-68
2022/09/18 12:51:39;;;;;;;4.88;1.77;;;;;;;22.93;28.03;100021.41;4945006;29;20394;-69
2022/09/18 12:54:14;;;;;;;17.45;3.13;;;;;;;21.77;29.49;100015.09;4949124;29;20051;-67
2022/09/18 12:56:49;;;;;;;4.80;1.65;;;;;;;21.77;30.22;100020.56;4953729;29;20098;-65
2022/09/18 12:59:34;;;;;;;2.45;0.98;;;;;;;20.70;30.68;100020.66;4953406;29;20058;-65
2022/09/18 13:02:25;;;;;;;5.50;1.60;;;;;;;19.08;33.36;100011.41;4953250;29;20047;-65
2022/09/18 13:05:03;;;;;;;4.13;0.80;;;;;;;18.40;34.65;100013.38;4952824;29;20047;-67
2022/09/18 13:08:04;;;;;;;3.65;1.20;;;;;;;17.19;37.38;100016.69;4953579;29;20059;-66
2022/09/18 13:10:38;;;;;;;4.45;1.50;;;;;;;16.18;39.01;100015.59;4948818;29;20054;-65
2022/09/18 13:13:25;;;;;;;7.47;1.23;;;;;;;15.33;40.86;100020.13;4933641;29;20447;-67
2022/09/18 13:15:56;;;;;;;6.53;1.90;;;;;;;14.71;43.14;100014.03;4933461;29;20040;-66
2022/09/18 13:18:43;;;;;;;8.20;1.80;;;;;;;13.99;45.06;100021.66;4932677;29;20054;-66
2022/09/18 13:21:32;;;;;;;6.63;1.67;;;;;;;13.54;45.86;100023.84;4933459;29;20047;-66
2022/09/18 13:24:00;;;;;;;9.27;1.88;;;;;;;13.76;44.96;100030.03;4918292;29;20048;-66
2022/09/18 13:26:30;;;;;;;9.75;1.55;;;;;;;13.86;44.96;100031.53;4932999;29;20480;-66
2022/09/18 13:28:58;;;;;;;9.30;1.88;;;;;;;14.13;44.03;100037.91;4932976;29;20047;-66
2022/09/18 13:31:34;;;;;;;4.47;1.17;;;;;;;14.39;43.09;100029.09;4933236;29;20059;-66
2022/09/18 13:34:03;;;;;;;8.00;1.77;;;;;;;14.56;43.45;100021.47;4933445;29;20094;-66
2022/09/18 13:36:34;;;;;;;8.13;1.50;;;;;;;14.26;43.65;100027.19;4931923;29;20456;-71
2022/09/18 13:39:28;;;;;;;2.92;1.20;;;;;;;13.85;42.45;100029.88;4933692;29;20047;-72
2022/09/18 13:42:06;;;;;;;4.18;1.02;;;;;;;13.79;41.99;100029.63;4934083;29;20055;-71
2022/09/18 13:44:37;;;;;;;5.47;1.05;;;;;;;13.85;42.65;100024.50;4922583;29;20063;-75
2022/09/18 13:47:14;;;;;;;8.65;0.98;;;;;;;13.38;43.23;100028.69;4932047;29;20047;-76
2022/09/18 13:49:49;;;;;;;7.43;1.65;;;;;;;13.11;43.84;100023.94;4934370;29;20039;-75
2022/09/18 13:52:34;;;;;;;5.75;1.30;;;;;;;13.44;42.95;100023.34;4934423;29;20492;-76
2022/09/18 13:55:12;;;;;;;4.20;1.35;;;;;;;13.30;43.58;100016.22;4933832;29;20044;-75
2022/09/18 13:57:40;;;;;;;5.25;1.50;;;;;;;13.19;44.44;100025.66;4933569;29;20214;-75
2022/09/18 14:00:30;;;;;;;3.00;1.02;;;;;;;13.04;44.41;100020.34;4933674;29;20055;-76
2022/09/18 14:03:26;;;;;;;5.05;0.77;;;;;;;13.04;43.60;100012.28;4924576;29;20047;-75
2022/09/18 14:05:54;;;;;;;4.85;0.95;;;;;;;13.13;44.12;100020.22;4933561;29;20047;-76
2022/09/18 14:08:21;;;;;;;3.88;0.73;;;;;;;12.95;44.62;100024.19;4932233;29;20055;-77
2022/09/18 14:10:47;;;;;;;8.85;2.15;;;;;;;13.09;45.04;100030.53;4939697;29;20130;-74
2022/09/18 14:13:54;;;;;;;5.22;1.33;;;;;;;13.10;44.99;100013.34;4950820;29;20095;-76
2022/09/18 14:16:22;;;;;;;6.65;1.77;;;;;;;12.79;45.66;100021.75;4952800;29;20054;-76
2022/09/18 14:18:57;;;;;;;4.03;1.27;;;;;;;12.98;45.24;100013.03;4952599;29;20050;-79
2022/09/18 14:21:27;;;;;;;3.72;1.40;;;;;;;12.58;46.53;100022.53;4953051;29;20130;-75
2022/09/18 14:24:03;;;;;;;2.80;1.00;;;;;;;12.86;45.85;100022.66;4952796;29;20055;-77
2022/09/18 14:26:37;;;;;;;3.35;0.90;;;;;;;12.86;45.97;100026.16;4951594;29;20054;-75
2022/09/18 14:29:16;;;;;;;3.45;0.98;;;;;;;12.96;46.42;100033.94;4952540;28;20078;-75
2022/09/18 14:31:54;;;;;;;4.60;1.00;;;;;;;12.76;46.88;100025.66;4951835;29;20058;-76
2022/09/18 14:34:42;;;;;;;7.47;1.25;;;;;;;12.75;46.46;100026.69;4952279;29;20122;-74
2022/09/18 14:37:24;;;;;;;4.85;0.85;;;;;;;13.00;46.14;100021.75;4935803;29;20047;-74
2022/09/18 14:39:55;;;;;;;1.85;0.85;;;;;;;12.82;46.91;100019.50;4953194;29;20495;-75
2022/09/18 14:42:38;;;;;;;4.38;1.33;;;;;;;12.83;47.76;100010.44;4953177;29;20492;-74
2022/09/18 14:45:13;;;;;;;4.97;1.02;;;;;;;12.58;47.87;100007.22;4949180;28;20051;-69
2022/09/18 14:47:43;;;;;;;6.07;1.60;;;;;;;12.37;48.64;100018.78;4944261;28;20051;-67
2022/09/18 14:50:30;;;;;;;6.07;1.45;;;;;;;12.50;48.67;100017.28;4944377;29;20048;-68
2022/09/18 14:52:59;;;;;;;4.65;1.23;;;;;;;12.62;48.28;100021.97;4938274;29;20464;-69